Pelham, New York
Current Conditions -  °F | °C
As of 4:51 PM on Thursday 23 Oct 2014 (Local Time) from KLGA Reporting Station
Broken Clouds Broken Clouds  
Wind Chill: 12°   Ceiling: 3900
Heat Index: 12°   Visibility: 10mi
Dew Point:   Wind: 25mph
Humidity: 77%   Direction: 340°NNW
Pressure: 29.69"   Gusts: 30mph
Location:  40.91°N, 73.81°W
Report Text: KLGA 232051Z 34022G26KT 10SM SCT026 SCT030 BKN039 12/08 A2969 RMK AO2 PK WND 35026/2051 SLP053 60010 T01170078 55002
Loading
Personal Weather Stations






























Interactive Weather Map
Tropical Storm Tracking
New forecast layout! Learn more

10-Day Weather Forecast

Advertisements
Track Severe Weather on mobile